Fort Osage, Missouri
Current Conditions -  °F | °C
As of 6:15 PM on Sunday 23 Nov 2014 (Local Time) from KGPH Reporting Station
Moderate Rain Moderate Rain  
Wind Chill:   Ceiling: 1500
Heat Index:   Visibility: 10mi
Dew Point:   Wind: 12mph
Humidity: 87%   Direction: 310°NW
Pressure: 29.38"   Gusts: 23mph
Location:  39.1591°N, 94.1879°W
Report Text: KGPH 240015Z AUTO 31010G20KT 10SM RA OVC015 08/06 A2938 RMK AO2
Loading
Personal Weather Stations






























Interactive Weather Map New forecast layout! Learn more

10-Day Weather Forecast

Advertisements
Track Severe Weather on mobile